Time;durP1;ratioP1;P1;durP2;ratioP2;P2;SDS_P1;SDS_P2;PMS_P1;PMS_P2;Temp;Humidity;BMP_temperature;BMP_pressure;BME280_temperature;BME280_humidity;BME280_pressure;Samples;Min_cycle;Max_cycle;Signal;HPM_P1;HPM_P2
2022/01/29 00:01:12;;;;;;;6.30;3.90;;;10.20;99.90;;;;;;5116010;28;20389;-77
2022/01/29 00:03:37;;;;;;;7.70;4.20;;;10.30;99.90;;;;;;5115597;28;20083;-77
2022/01/29 00:06:04;;;;;;;7.47;4.70;;;10.30;99.90;;;;;;5115972;28;20032;-77
2022/01/29 00:08:30;;;;;;;6.57;3.67;;;10.40;99.90;;;;;;5114630;28;20032;-76
2022/01/29 00:11:02;;;;;;;6.07;3.53;;;10.50;99.90;;;;;;5115831;28;20155;-76
2022/01/29 00:13:28;;;;;;;6.72;4.00;;;10.50;99.90;;;;;;5116024;28;20107;-77
2022/01/29 00:15:54;;;;;;;9.07;4.57;;;10.50;99.90;;;;;;5116068;28;20055;-76
2022/01/29 00:18:19;;;;;;;12.57;6.40;;;10.50;99.90;;;;;;5115634;28;20023;-77
2022/01/29 00:20:45;;;;;;;9.88;5.10;;;10.40;99.90;;;;;;5115140;28;20147;-76
2022/01/29 00:23:10;;;;;;;9.15;5.00;;;10.40;99.90;;;;;;5115844;28;20019;-77
2022/01/29 00:25:36;;;;;;;6.97;3.90;;;10.40;99.90;;;;;;5115788;28;20038;-77
2022/01/29 00:28:02;;;;;;;6.45;3.67;;;10.40;99.90;;;;;;5115556;28;20065;-76
2022/01/29 00:30:37;;;;;;;6.75;3.70;;;10.40;99.90;;;;;;5115433;28;20445;-76
2022/01/29 00:33:03;;;;;;;6.95;3.50;;;10.40;99.90;;;;;;5113825;28;20019;-77
2022/01/29 00:35:29;;;;;;;6.78;3.55;;;10.40;99.90;;;;;;5115362;28;20397;-75
2022/01/29 00:37:54;;;;;;;7.82;3.75;;;10.40;99.90;;;;;;5115257;28;20016;-76
2022/01/29 00:40:21;;;;;;;5.55;3.22;;;10.40;99.90;;;;;;5115251;28;20044;-77
2022/01/29 00:42:48;;;;;;;10.18;4.07;;;10.40;99.90;;;;;;5115212;28;20016;-77
2022/01/29 00:45:13;;;;;;;7.85;4.00;;;10.40;99.90;;;;;;5115180;28;20035;-77
2022/01/29 00:47:39;;;;;;;8.30;3.83;;;10.40;99.90;;;;;;5115124;28;20023;-76
2022/01/29 00:50:06;;;;;;;7.68;4.40;;;10.40;99.90;;;;;;5115031;28;20107;-77
2022/01/29 00:52:31;;;;;;;7.75;4.93;;;10.40;99.90;;;;;;5115033;28;20019;-75
2022/01/29 00:54:57;;;;;;;10.15;5.70;;;10.50;99.90;;;;;;5114808;28;20028;-76
2022/01/29 00:57:24;;;;;;;9.70;4.70;;;10.50;99.90;;;;;;5115178;28;20020;-77
2022/01/29 00:59:49;;;;;;;5.78;3.58;;;10.50;99.90;;;;;;5114865;28;20473;-77
2022/01/29 01:02:15;;;;;;;9.80;4.32;;;10.50;99.90;;;;;;5114609;28;20230;-76
2022/01/29 01:04:40;;;;;;;9.50;4.05;;;10.50;99.90;;;;;;5115017;28;20023;-76
2022/01/29 01:07:09;;;;;;;8.00;4.57;;;10.50;99.90;;;;;;5114647;28;20028;-76
2022/01/29 01:09:35;;;;;;;7.47;4.13;;;10.50;99.90;;;;;;5114726;28;20073;-75
2022/01/29 01:12:01;;;;;;;7.43;4.13;;;10.40;99.90;;;;;;5114617;27;20366;-77
2022/01/29 01:14:27;;;;;;;8.15;4.80;;;10.40;99.90;;;;;;5114494;28;20028;-76
2022/01/29 01:16:53;;;;;;;6.75;4.00;;;10.40;99.90;;;;;;5113244;28;20042;-76
2022/01/29 01:19:18;;;;;;;11.07;5.28;;;10.40;99.90;;;;;;5114496;28;20027;-77
2022/01/29 01:21:44;;;;;;;11.20;5.43;;;10.40;99.90;;;;;;5114673;28;20095;-76
2022/01/29 01:24:10;;;;;;;7.57;4.55;;;10.40;99.90;;;;;;5114641;28;20066;-76
2022/01/29 01:26:35;;;;;;;8.75;4.60;;;10.40;99.90;;;;;;5113112;28;20119;-77
2022/01/29 01:29:01;;;;;;;8.65;4.97;;;10.40;99.90;;;;;;5114335;28;20027;-77
2022/01/29 01:31:27;;;;;;;8.52;4.75;;;10.40;99.90;;;;;;5113427;28;20017;-76
2022/01/29 01:33:52;;;;;;;9.02;5.75;;;10.40;99.90;;;;;;5114223;28;20392;-77
2022/01/29 01:36:22;;;;;;;10.93;6.18;;;10.30;99.90;;;;;;5114522;28;20036;-77
2022/01/29 01:38:59;;;;;;;11.60;7.43;;;10.30;99.90;;;;;;5114792;28;20024;-77
2022/01/29 01:41:26;;;;;;;13.02;7.88;;;10.30;99.90;;;;;;5112564;28;20163;-77
2022/01/29 01:44:00;;;;;;;11.98;7.28;;;10.30;99.90;;;;;;5114417;28;20024;-76
2022/01/29 01:46:28;;;;;;;11.27;6.90;;;10.30;99.90;;;;;;5114654;28;20042;-77
2022/01/29 01:48:54;;;;;;;11.93;6.78;;;10.30;99.90;;;;;;5114317;28;20031;-77
2022/01/29 01:51:20;;;;;;;11.45;6.55;;;10.40;99.90;;;;;;5113950;28;20098;-76
2022/01/29 01:53:46;;;;;;;12.52;7.57;;;10.40;99.90;;;;;;5114080;28;20111;-77
2022/01/29 01:56:11;;;;;;;13.13;8.38;;;10.40;99.90;;;;;;5113948;28;20385;-76
2022/01/29 01:58:37;;;;;;;13.13;7.85;;;10.40;99.90;;;;;;5114138;28;20572;-76
2022/01/29 02:01:03;;;;;;;14.00;8.70;;;10.30;99.90;;;;;;5113763;28;20023;-76
2022/01/29 02:03:29;;;;;;;15.45;8.70;;;10.30;99.90;;;;;;5113668;28;20066;-76
2022/01/29 02:05:55;;;;;;;15.10;9.55;;;10.30;99.90;;;;;;5113797;28;20027;-77
2022/01/29 02:08:21;;;;;;;16.77;9.43;;;10.30;99.90;;;;;;5113789;28;20027;-77
2022/01/29 02:10:48;;;;;;;14.95;9.00;;;10.30;99.90;;;;;;5114216;28;20019;-76
2022/01/29 02:13:14;;;;;;;15.18;9.30;;;10.30;99.90;;;;;;5112337;28;20035;-77
2022/01/29 02:15:40;;;;;;;14.77;9.40;;;10.30;99.90;;;;;;5113674;28;20020;-77
2022/01/29 02:18:05;;;;;;;16.35;9.57;;;10.30;99.90;;;;;;5113699;28;20055;-78
2022/01/29 02:20:32;;;;;;;15.80;9.85;;;10.40;99.90;;;;;;5113610;28;20026;-75
2022/01/29 02:23:00;;;;;;;17.45;10.50;;;10.30;99.90;;;;;;5113578;28;20022;-76
2022/01/29 02:25:44;;;;;;;15.05;9.98;;;10.30;99.90;;;;;;5112330;28;20440;-77
2022/01/29 02:28:22;;;;;;;16.48;10.55;;;10.30;99.90;;;;;;5112024;28;20027;-76
2022/01/29 02:31:00;;;;;;;15.40;9.95;;;10.30;99.90;;;;;;5113542;28;20099;-76
2022/01/29 02:33:27;;;;;;;17.83;11.43;;;10.30;99.90;;;;;;5113779;28;20489;-76
2022/01/29 02:35:54;;;;;;;16.90;10.65;;;10.30;99.90;;;;;;5113485;28;20098;-75
2022/01/29 02:38:23;;;;;;;17.52;10.48;;;10.30;99.90;;;;;;5114053;28;20055;-77
2022/01/29 02:40:52;;;;;;;18.25;10.45;;;10.30;99.90;;;;;;5112127;28;20481;-77
2022/01/29 02:43:21;;;;;;;16.75;10.07;;;10.30;99.90;;;;;;5114779;28;20031;-76
2022/01/29 02:45:48;;;;;;;17.13;9.75;;;10.30;99.90;;;;;;5117469;28;20024;-77
2022/01/29 02:48:14;;;;;;;15.90;10.40;;;10.30;99.90;;;;;;5117442;28;20016;-77
2022/01/29 02:50:40;;;;;;;16.05;9.95;;;10.30;99.90;;;;;;5117406;28;20507;-76
2022/01/29 02:53:07;;;;;;;17.80;9.85;;;10.40;99.90;;;;;;5117364;28;20106;-76
2022/01/29 02:55:32;;;;;;;14.63;9.63;;;10.40;99.90;;;;;;5117255;28;20027;-78
2022/01/29 02:57:58;;;;;;;17.98;10.85;;;10.40;99.90;;;;;;5117584;28;20145;-76
2022/01/29 03:00:24;;;;;;;17.08;10.35;;;10.40;99.90;;;;;;5117207;28;20397;-76
2022/01/29 03:02:50;;;;;;;15.15;9.65;;;10.30;99.90;;;;;;5117133;28;20085;-76
2022/01/29 03:05:17;;;;;;;18.50;10.02;;;10.20;99.90;;;;;;5117649;28;20031;-75
2022/01/29 03:07:43;;;;;;;20.67;10.48;;;10.20;99.90;;;;;;5117616;27;20492;-77
2022/01/29 03:10:08;;;;;;;19.40;11.07;;;10.30;99.90;;;;;;5116980;28;20024;-76
2022/01/29 03:12:37;;;;;;;18.50;10.65;;;10.20;99.90;;;;;;5117557;28;20024;-76
2022/01/29 03:15:04;;;;;;;21.67;12.52;;;10.20;99.90;;;;;;5116877;28;20055;-78
2022/01/29 03:17:29;;;;;;;17.65;11.48;;;10.20;99.90;;;;;;5117157;28;20019;-77
2022/01/29 03:19:55;;;;;;;20.95;12.60;;;10.20;99.90;;;;;;5117071;28;20098;-76
2022/01/29 03:22:20;;;;;;;19.80;11.35;;;10.30;99.90;;;;;;5116759;28;20015;-76
2022/01/29 03:24:46;;;;;;;19.60;11.65;;;10.30;99.90;;;;;;5116996;28;20035;-76
2022/01/29 03:27:12;;;;;;;20.40;12.65;;;10.30;99.90;;;;;;5116985;28;20026;-76
2022/01/29 03:29:38;;;;;;;20.65;12.52;;;10.30;99.90;;;;;;5116668;28;20476;-76
2022/01/29 03:32:04;;;;;;;20.70;12.23;;;10.30;99.90;;;;;;5116921;28;20167;-77
2022/01/29 03:34:30;;;;;;;18.85;11.25;;;10.30;99.90;;;;;;5116522;28;20032;-76
2022/01/29 03:36:56;;;;;;;19.48;11.55;;;10.20;99.90;;;;;;5117080;28;20377;-75
2022/01/29 03:39:25;;;;;;;17.45;10.45;;;10.30;99.90;;;;;;5116810;28;20019;-76
2022/01/29 03:41:51;;;;;;;19.20;10.63;;;10.30;99.90;;;;;;5116751;28;20020;-76
2022/01/29 03:44:17;;;;;;;16.77;10.73;;;10.20;99.90;;;;;;5116659;28;20027;-77
2022/01/29 03:46:43;;;;;;;19.63;10.27;;;10.20;99.90;;;;;;5116639;28;20089;-76
2022/01/29 03:49:08;;;;;;;16.63;9.52;;;10.30;99.90;;;;;;5116272;28;20027;-76
2022/01/29 03:51:34;;;;;;;16.15;9.55;;;10.20;99.90;;;;;;5116299;28;20023;-76
2022/01/29 03:54:00;;;;;;;13.20;9.38;;;10.20;99.90;;;;;;5115100;28;20485;-77
2022/01/29 03:56:25;;;;;;;11.88;6.50;;;10.20;99.90;;;;;;5116150;28;20027;-77
2022/01/29 03:58:51;;;;;;;13.15;8.25;;;10.20;99.90;;;;;;5114807;28;20366;-77
2022/01/29 04:01:17;;;;;;;11.52;7.05;;;10.20;99.90;;;;;;5116014;28;20051;-77
2022/01/29 04:03:42;;;;;;;15.00;7.82;;;10.10;99.90;;;;;;5114295;28;20058;-76
2022/01/29 04:06:08;;;;;;;9.80;5.78;;;10.20;99.90;;;;;;5116237;28;20024;-76
2022/01/29 04:08:40;;;;;;;9.55;6.05;;;10.10;99.90;;;;;;5115956;28;20019;-77
2022/01/29 04:11:07;;;;;;;8.52;5.22;;;10.20;99.90;;;;;;5116222;28;20023;-77
2022/01/29 04:13:33;;;;;;;8.75;5.93;;;10.20;99.90;;;;;;5115730;28;20081;-76
2022/01/29 04:15:59;;;;;;;8.68;6.05;;;10.20;99.90;;;;;;5116039;28;20102;-77
2022/01/29 04:18:24;;;;;;;10.70;5.90;;;10.20;99.90;;;;;;5115748;28;20380;-76
2022/01/29 04:20:50;;;;;;;9.65;6.30;;;10.20;99.90;;;;;;5115950;28;20028;-77
2022/01/29 04:23:15;;;;;;;8.32;5.35;;;10.20;99.90;;;;;;5114334;28;20054;-76
2022/01/29 04:25:41;;;;;;;8.88;5.13;;;10.20;99.90;;;;;;5115568;28;20023;-77
2022/01/29 04:28:10;;;;;;;10.15;4.93;;;10.20;99.90;;;;;;5115553;28;20046;-75
2022/01/29 04:30:47;;;;;;;8.00;4.68;;;10.20;99.90;;;;;;5115461;28;20026;-77
2022/01/29 04:33:28;;;;;;;8.52;4.38;;;10.20;99.90;;;;;;5113827;28;20027;-76
2022/01/29 04:35:58;;;;;;;8.40;4.53;;;10.10;99.90;;;;;;5115708;27;20131;-76
2022/01/29 04:38:25;;;;;;;7.78;3.97;;;10.10;99.90;;;;;;5115961;28;20373;-76
2022/01/29 04:40:51;;;;;;;7.93;4.47;;;10.10;99.90;;;;;;5115303;28;20016;-77
2022/01/29 04:43:16;;;;;;;8.13;4.68;;;10.10;99.90;;;;;;5115171;27;20477;-76
2022/01/29 04:45:42;;;;;;;9.95;5.32;;;10.10;99.90;;;;;;5115200;28;20038;-76
2022/01/29 04:48:08;;;;;;;7.97;5.00;;;10.10;99.90;;;;;;5113831;28;20026;-76
2022/01/29 04:50:34;;;;;;;7.72;4.82;;;10.10;99.90;;;;;;5113796;28;20031;-77
2022/01/29 04:53:00;;;;;;;7.85;4.40;;;10.10;99.90;;;;;;5115014;28;20393;-76
2022/01/29 04:55:25;;;;;;;10.48;5.00;;;10.10;99.90;;;;;;5114805;28;20080;-76
2022/01/29 04:57:51;;;;;;;8.85;4.75;;;10.20;99.90;;;;;;5115206;28;20024;-77
2022/01/29 05:00:20;;;;;;;8.65;4.43;;;10.10;99.90;;;;;;5115121;28;20043;-76
2022/01/29 05:02:53;;;;;;;8.73;5.03;;;10.20;99.90;;;;;;5113364;28;20055;-77
2022/01/29 05:05:19;;;;;;;7.95;4.30;;;10.20;99.90;;;;;;5115308;28;20118;-77
2022/01/29 05:07:45;;;;;;;9.15;4.68;;;10.20;99.90;;;;;;5114726;28;20029;-77
2022/01/29 05:10:12;;;;;;;8.70;4.82;;;10.20;99.90;;;;;;5113400;28;20031;-75
2022/01/29 05:12:55;;;;;;;9.75;5.18;;;10.20;99.90;;;;;;5114669;28;20031;-76
2022/01/29 05:28:46;;;;;;;11.40;5.20;;;10.20;99.90;;;;;;5114671;28;20038;-75
2022/01/29 05:31:12;;;;;;;10.07;4.88;;;10.20;99.90;;;;;;5114641;28;20381;-77
2022/01/29 05:33:37;;;;;;;10.80;5.47;;;10.20;99.90;;;;;;5114481;28;20116;-78
2022/01/29 05:36:03;;;;;;;10.45;5.30;;;10.20;99.90;;;;;;5114493;28;20073;-76
2022/01/29 05:38:29;;;;;;;10.90;5.72;;;10.20;99.90;;;;;;5114150;28;20476;-76
2022/01/29 05:40:55;;;;;;;12.40;5.57;;;10.20;99.90;;;;;;5114193;28;20099;-78
2022/01/29 05:43:21;;;;;;;11.75;5.03;;;10.20;99.90;;;;;;5114125;28;20054;-77
2022/01/29 05:45:47;;;;;;;9.70;5.30;;;10.30;99.90;;;;;;5114112;28;20458;-76
2022/01/29 05:48:13;;;;;;;13.43;5.95;;;10.30;99.90;;;;;;5114345;28;20055;-77
2022/01/29 05:50:39;;;;;;;10.18;5.20;;;10.30;99.90;;;;;;5114264;28;20027;-76
2022/01/29 05:53:05;;;;;;;9.13;5.32;;;10.20;99.90;;;;;;5114009;28;20059;-76
2022/01/29 05:55:31;;;;;;;10.20;5.35;;;10.20;99.90;;;;;;5113819;28;20072;-76
2022/01/29 05:57:56;;;;;;;10.27;5.60;;;10.20;99.90;;;;;;5114179;28;20027;-77
2022/01/29 06:00:22;;;;;;;11.77;5.40;;;10.20;99.90;;;;;;5113887;28;20102;-76
2022/01/29 06:03:03;;;;;;;11.07;5.57;;;10.20;99.90;;;;;;5113627;28;20036;-76
2022/01/29 06:05:29;;;;;;;11.35;5.72;;;10.20;99.90;;;;;;5114102;28;20023;-77
2022/01/29 06:07:55;;;;;;;9.77;5.28;;;10.20;99.90;;;;;;5113768;28;20477;-76
2022/01/29 06:10:21;;;;;;;9.07;5.05;;;10.20;99.90;;;;;;5113749;28;20035;-76
2022/01/29 06:13:00;;;;;;;10.88;5.63;;;10.20;99.90;;;;;;5112436;28;20509;-77
2022/01/29 06:15:26;;;;;;;10.88;5.68;;;10.20;99.90;;;;;;5113993;28;20023;-76
2022/01/29 06:17:52;;;;;;;9.90;5.43;;;10.20;99.90;;;;;;5113138;28;20024;-76
2022/01/29 06:20:18;;;;;;;9.18;4.72;;;10.20;99.90;;;;;;5113627;28;20018;-76
2022/01/29 06:22:43;;;;;;;10.43;5.82;;;10.20;99.90;;;;;;5113639;28;20056;-76
2022/01/29 06:25:09;;;;;;;9.00;5.45;;;10.10;99.90;;;;;;5113851;28;20033;-77
2022/01/29 06:27:35;;;;;;;10.15;5.93;;;10.10;99.90;;;;;;5113846;28;20024;-76
2022/01/29 06:30:01;;;;;;;9.15;5.15;;;10.10;99.90;;;;;;5113525;28;20024;-76
2022/01/29 06:32:26;;;;;;;10.73;6.28;;;10.10;99.90;;;;;;5113766;28;20035;-77
2022/01/29 06:34:52;;;;;;;10.18;6.07;;;10.10;99.90;;;;;;5113679;28;20110;-76
2022/01/29 06:37:18;;;;;;;11.57;5.80;;;10.10;99.90;;;;;;5113717;28;20024;-77
2022/01/29 06:39:43;;;;;;;10.20;5.78;;;10.10;99.90;;;;;;5113444;28;20024;-76
2022/01/29 06:42:09;;;;;;;9.35;5.15;;;10.10;99.90;;;;;;5113725;28;20028;-75
2022/01/29 06:44:35;;;;;;;7.93;4.30;;;10.10;99.90;;;;;;5112084;28;20473;-77
2022/01/29 06:47:00;;;;;;;7.38;4.00;;;10.10;99.90;;;;;;5113968;28;20103;-76
2022/01/29 06:49:26;;;;;;;7.95;4.50;;;10.10;99.90;;;;;;5113350;28;20028;-77
2022/01/29 06:51:53;;;;;;;8.88;4.30;;;10.10;99.90;;;;;;5112076;28;20484;-76
2022/01/29 06:54:19;;;;;;;7.85;3.95;;;10.00;99.90;;;;;;5113226;28;20016;-77
2022/01/29 06:56:45;;;;;;;5.50;3.40;;;10.10;99.90;;;;;;5113281;28;20015;-77
2022/01/29 06:59:10;;;;;;;7.82;4.20;;;10.10;99.90;;;;;;5113231;28;20073;-76
2022/01/29 07:01:36;;;;;;;7.32;3.70;;;10.10;99.90;;;;;;5111798;28;20514;-75
2022/01/29 07:04:02;;;;;;;6.75;4.38;;;10.10;99.90;;;;;;5113215;28;20400;-76
2022/01/29 07:06:28;;;;;;;7.03;4.25;;;10.10;99.90;;;;;;5113489;28;20469;-77
2022/01/29 07:08:53;;;;;;;7.45;4.32;;;10.10;99.90;;;;;;5113516;28;20480;-77
2022/01/29 07:11:21;;;;;;;8.30;4.93;;;10.10;99.90;;;;;;5113206;28;20503;-76
2022/01/29 07:13:47;;;;;;;6.82;5.13;;;10.10;99.90;;;;;;5111834;28;20055;-77
2022/01/29 07:16:13;;;;;;;9.98;6.25;;;10.10;99.90;;;;;;5113112;28;20446;-76
2022/01/29 07:18:38;;;;;;;8.10;5.60;;;10.10;99.90;;;;;;5113131;28;20051;-77
2022/01/29 07:21:04;;;;;;;10.88;6.15;;;10.10;99.90;;;;;;5113652;28;20028;-76
2022/01/29 07:23:29;;;;;;;10.23;6.45;;;10.10;99.90;;;;;;5113340;28;20024;-76
2022/01/29 07:25:55;;;;;;;10.38;5.88;;;10.00;99.90;;;;;;5113066;28;20024;-77
2022/01/29 07:28:21;;;;;;;8.25;5.88;;;10.10;99.90;;;;;;5112977;28;20393;-76
2022/01/29 07:30:46;;;;;;;11.93;7.07;;;10.00;99.90;;;;;;5116049;28;20370;-76
2022/01/29 07:33:12;;;;;;;9.35;6.43;;;10.00;99.90;;;;;;5116648;28;20084;-77
2022/01/29 07:35:37;;;;;;;11.45;6.30;;;10.00;99.90;;;;;;5116541;28;20366;-77
2022/01/29 07:38:03;;;;;;;7.82;4.65;;;10.00;99.90;;;;;;5115251;28;20219;-76
2022/01/29 07:40:29;;;;;;;7.60;4.28;;;10.00;99.90;;;;;;5116486;28;20016;-76
2022/01/29 07:42:54;;;;;;;7.95;3.92;;;10.10;99.90;;;;;;5116690;28;20115;-77
2022/01/29 07:45:20;;;;;;;7.20;4.00;;;10.00;99.90;;;;;;5116385;28;20020;-77
2022/01/29 07:47:45;;;;;;;5.45;3.42;;;10.10;99.90;;;;;;5116613;28;20039;-76
2022/01/29 07:50:11;;;;;;;4.75;2.97;;;10.10;99.90;;;;;;5116304;28;20457;-76
2022/01/29 07:52:37;;;;;;;5.53;3.08;;;10.00;99.90;;;;;;5116233;28;20477;-77
2022/01/29 07:55:04;;;;;;;4.20;2.67;;;10.00;99.90;;;;;;5116069;28;20055;-77
2022/01/29 07:57:30;;;;;;;3.90;2.53;;;10.00;99.90;;;;;;5116151;28;20023;-77
2022/01/29 07:59:56;;;;;;;5.97;2.53;;;10.00;99.90;;;;;;5116362;28;20068;-76
2022/01/29 08:02:21;;;;;;;5.43;2.15;;;9.90;99.90;;;;;;5116198;28;20126;-77
2022/01/29 08:04:47;;;;;;;6.38;2.58;;;9.90;99.90;;;;;;5114716;28;20165;-76
2022/01/29 08:07:12;;;;;;;4.13;2.75;;;9.90;99.90;;;;;;5115996;28;20055;-77
2022/01/29 08:09:38;;;;;;;5.32;2.92;;;9.90;99.90;;;;;;5115929;28;20027;-76
2022/01/29 08:12:04;;;;;;;3.97;2.65;;;9.90;99.90;;;;;;5115602;28;20485;-75
2022/01/29 08:14:30;;;;;;;4.00;3.05;;;10.00;99.90;;;;;;5116006;28;20061;-76
2022/01/29 08:16:55;;;;;;;6.75;4.57;;;10.00;99.90;;;;;;5116025;28;20051;-77
2022/01/29 08:19:21;;;;;;;6.43;4.10;;;10.00;99.90;;;;;;5116252;28;20068;-76
2022/01/29 08:21:46;;;;;;;5.97;4.13;;;10.00;99.90;;;;;;5115898;28;20023;-77
2022/01/29 08:24:12;;;;;;;6.65;3.85;;;10.10;99.90;;;;;;5115619;28;20032;-77
2022/01/29 08:26:38;;;;;;;6.05;4.35;;;10.10;99.90;;;;;;5115579;28;20027;-77
2022/01/29 08:29:04;;;;;;;5.60;4.10;;;10.10;99.90;;;;;;5115528;28;20027;-77
2022/01/29 08:31:29;;;;;;;5.35;3.20;;;10.10;99.90;;;;;;5115738;28;20024;-76
2022/01/29 08:33:55;;;;;;;4.85;3.40;;;10.20;99.90;;;;;;5115627;28;20019;-76
2022/01/29 08:36:20;;;;;;;4.20;3.00;;;10.20;99.90;;;;;;5115378;28;20028;-77
2022/01/29 08:38:46;;;;;;;5.97;3.03;;;10.20;99.90;;;;;;5115576;28;20036;-77
2022/01/29 08:41:12;;;;;;;4.30;2.40;;;10.20;99.90;;;;;;5115084;28;20030;-77
2022/01/29 08:43:37;;;;;;;4.28;2.40;;;10.20;99.90;;;;;;5113924;28;20015;-76
2022/01/29 08:46:03;;;;;;;4.78;2.60;;;10.20;99.90;;;;;;5115510;28;20520;-77
2022/01/29 08:48:29;;;;;;;4.15;2.70;;;10.20;99.90;;;;;;5115404;28;20016;-77
2022/01/29 08:50:54;;;;;;;6.43;3.58;;;10.20;99.90;;;;;;5115347;28;20103;-77
2022/01/29 08:53:20;;;;;;;6.88;4.10;;;10.20;99.90;;;;;;5115013;28;20019;-76
2022/01/29 08:55:46;;;;;;;6.13;4.75;;;10.20;99.90;;;;;;5114855;28;20031;-77
2022/01/29 08:58:13;;;;;;;7.25;4.45;;;10.20;99.90;;;;;;5114991;28;20020;-76
2022/01/29 09:00:44;;;;;;;7.93;5.20;;;10.30;99.90;;;;;;5113677;28;20431;-75
2022/01/29 09:03:13;;;;;;;6.03;4.18;;;10.30;99.90;;;;;;5114724;28;20468;-75
2022/01/29 09:05:38;;;;;;;6.43;4.18;;;10.30;99.90;;;;;;5115142;28;20024;-76
2022/01/29 09:08:05;;;;;;;5.35;3.70;;;10.30;99.90;;;;;;5115043;28;20088;-77
2022/01/29 09:10:31;;;;;;;4.93;3.03;;;10.30;99.90;;;;;;5115341;28;20430;-76
2022/01/29 09:12:58;;;;;;;7.00;3.35;;;10.30;99.90;;;;;;5114708;28;20481;-77
2022/01/29 09:15:24;;;;;;;5.57;3.20;;;10.30;99.90;;;;;;5114552;28;20028;-75
2022/01/29 09:17:50;;;;;;;7.05;4.30;;;10.30;99.90;;;;;;5114617;28;20024;-76
2022/01/29 09:20:15;;;;;;;7.13;4.78;;;10.30;99.90;;;;;;5114517;28;20027;-76
2022/01/29 09:22:41;;;;;;;6.75;4.47;;;10.30;99.90;;;;;;5114497;28;20020;-76
2022/01/29 09:25:07;;;;;;;7.93;4.03;;;10.30;99.90;;;;;;5114446;28;20035;-77
2022/01/29 09:27:33;;;;;;;11.23;5.15;;;10.30;99.90;;;;;;5114406;28;20024;-77
2022/01/29 09:29:59;;;;;;;9.38;4.57;;;10.40;99.90;;;;;;5114419;28;20024;-76
2022/01/29 09:32:24;;;;;;;5.90;3.30;;;10.40;99.90;;;;;;5113018;28;20515;-76
2022/01/29 09:34:50;;;;;;;5.15;3.10;;;10.40;99.90;;;;;;5114199;28;20051;-77
2022/01/29 09:37:16;;;;;;;5.10;2.38;;;10.40;99.90;;;;;;5114196;28;20027;-78
2022/01/29 09:39:44;;;;;;;3.88;2.40;;;10.40;99.90;;;;;;5114395;28;20028;-76
2022/01/29 09:42:10;;;;;;;3.80;2.63;;;10.40;99.90;;;;;;5114407;28;20020;-81
2022/01/29 09:44:36;;;;;;;3.33;2.22;;;10.50;99.90;;;;;;5112741;28;20027;-80
2022/01/29 09:47:04;;;;;;;3.38;2.25;;;10.50;99.90;;;;;;5114092;28;20095;-78
2022/01/29 09:49:34;;;;;;;4.78;2.70;;;10.60;99.90;;;;;;5114605;28;20031;-75
2022/01/29 09:52:00;;;;;;;;;;;10.60;99.90;;;;;;5113816;28;20516;-79
2022/01/29 09:54:26;;;;;;;3.72;2.40;;;10.60;99.90;;;;;;5113802;28;19989;-79
2022/01/29 09:56:52;;;;;;;3.20;2.60;;;10.60;99.90;;;;;;5112578;28;20473;-81
2022/01/29 09:59:18;;;;;;;4.53;3.05;;;10.70;99.90;;;;;;5114167;28;20045;-85
2022/01/29 10:01:43;;;;;;;4.03;2.55;;;10.70;99.90;;;;;;5113791;28;20020;-82
2022/01/29 10:04:09;;;;;;;3.83;2.65;;;10.70;99.90;;;;;;5114106;28;20031;-78
2022/01/29 10:06:36;;;;;;;8.48;4.30;;;10.80;99.90;;;;;;5113786;28;20028;-76
2022/01/29 10:09:06;;;;;;;12.00;5.75;;;10.70;99.90;;;;;;5113736;28;20016;-77
2022/01/29 10:11:32;;;;;;;8.50;4.72;;;10.80;99.90;;;;;;5112215;28;20416;-77
2022/01/29 10:14:02;;;;;;;6.78;3.65;;;10.80;99.90;;;;;;5113676;28;20020;-76
2022/01/29 10:16:29;;;;;;;;;;;10.80;99.90;;;;;;5114599;28;20453;-75
2022/01/29 10:19:00;;;;;;;4.28;2.25;;;10.90;99.90;;;;;;5113684;28;19904;-77
2022/01/29 10:21:32;;;;;;;4.15;2.33;;;10.90;99.90;;;;;;5113795;28;20023;-78
2022/01/29 10:24:03;;;;;;;3.17;2.40;;;11.00;99.90;;;;;;5114098;28;20055;-76
2022/01/29 10:26:34;;;;;;;3.42;2.30;;;10.90;99.90;;;;;;5113949;28;20077;-77
2022/01/29 10:29:01;;;;;;;3.65;2.58;;;11.00;99.90;;;;;;5113835;28;20388;-77
2022/01/29 10:31:48;;;;;;;4.97;3.05;;;11.00;99.90;;;;;;5113700;28;20020;-77
2022/01/29 10:34:25;;;;;;;5.15;3.47;;;11.00;99.90;;;;;;5113060;28;20032;-77
2022/01/29 10:37:23;;;;;;;7.35;3.25;;;11.10;99.90;;;;;;5112115;28;20023;-79
2022/01/29 10:40:00;;;;;;;3.70;2.47;;;11.10;99.90;;;;;;5114257;28;20020;-77
2022/01/29 10:42:32;;;;;;;3.90;2.70;;;11.10;99.90;;;;;;5113807;28;20427;-77
2022/01/29 10:45:02;;;;;;;3.58;2.25;;;11.10;99.90;;;;;;5111891;28;20047;-77
2022/01/29 10:47:48;;;;;;;2.42;1.90;;;11.20;99.90;;;;;;5113410;28;20023;-78
2022/01/29 10:50:14;;;;;;;4.60;2.30;;;11.10;99.90;;;;;;5113508;28;20032;-74
2022/01/29 10:52:40;;;;;;;2.95;2.10;;;11.20;99.90;;;;;;5113724;28;20031;-75
2022/01/29 10:55:08;;;;;;;2.70;2.00;;;11.20;99.90;;;;;;5113185;28;20039;-75
2022/01/29 10:57:39;;;;;;;3.35;2.20;;;11.20;99.90;;;;;;5113541;28;20016;-72
2022/01/29 11:00:08;;;;;;;4.10;2.75;;;11.20;99.90;;;;;;5112674;28;20023;-74
2022/01/29 11:02:34;;;;;;;3.42;2.47;;;11.30;99.90;;;;;;5107154;28;20042;-76
2022/01/29 11:05:04;;;;;;;5.80;3.50;;;11.30;99.90;;;;;;5116873;28;20498;-75
2022/01/29 11:07:31;;;;;;;2.88;2.17;;;11.30;99.90;;;;;;5117231;28;20016;-76
2022/01/29 11:10:00;;;;;;;4.82;3.03;;;11.20;99.90;;;;;;5116055;27;20476;-74
2022/01/29 11:12:28;;;;;;;7.60;3.27;;;11.20;99.90;;;;;;5115307;28;20481;-76
2022/01/29 11:14:56;;;;;;;5.60;3.40;;;11.20;99.90;;;;;;5114448;28;20357;-76
2022/01/29 11:17:32;;;;;;;5.53;2.75;;;11.20;99.90;;;;;;5116632;28;20070;-75
2022/01/29 11:20:00;;;;;;;3.85;2.63;;;11.20;99.90;;;;;;5116707;28;20020;-75
2022/01/29 11:22:40;;;;;;;4.78;2.75;;;11.30;99.90;;;;;;5117183;28;20116;-75
2022/01/29 11:25:35;;;;;;;3.75;2.60;;;11.20;99.90;;;;;;5117422;27;20028;-74
2022/01/29 11:28:19;;;;;;;4.55;3.03;;;11.30;99.90;;;;;;5117360;28;20028;-76
2022/01/29 11:31:06;;;;;;;4.40;3.05;;;11.20;99.90;;;;;;5115174;28;20449;-74
2022/01/29 11:33:32;;;;;;;4.00;1.75;;;11.30;99.90;;;;;;5116512;28;20073;-76
2022/01/29 11:35:58;;;;;;;3.45;1.80;;;11.20;99.90;;;;;;5116886;28;20062;-76
2022/01/29 11:38:41;;;;;;;2.53;1.48;;;11.20;99.90;;;;;;5115258;28;20481;-76
2022/01/29 11:41:11;;;;;;;1.83;1.42;;;11.20;99.90;;;;;;5116623;28;20489;-75
2022/01/29 11:43:38;;;;;;;3.80;2.20;;;11.30;99.90;;;;;;5116670;28;20072;-75
2022/01/29 11:46:05;;;;;;;2.78;1.90;;;11.30;99.90;;;;;;5115454;28;20016;-75
2022/01/29 11:48:39;;;;;;;4.05;2.60;;;11.30;99.90;;;;;;5116116;28;20019;-74
2022/01/29 11:51:07;;;;;;;4.13;2.60;;;11.30;99.90;;;;;;5114507;28;20043;-76
2022/01/29 11:53:45;;;;;;;3.95;2.50;;;11.40;99.90;;;;;;5115881;28;20023;-75
2022/01/29 11:56:34;;;;;;;5.72;3.70;;;11.40;99.90;;;;;;5115972;28;20549;-76
2022/01/29 11:59:22;;;;;;;5.90;3.45;;;11.40;99.90;;;;;;5116738;27;20023;-74
2022/01/29 12:01:57;;;;;;;5.60;3.53;;;11.40;99.90;;;;;;5116123;28;20016;-76
2022/01/29 12:04:44;;;;;;;4.45;2.75;;;11.40;99.90;;;;;;5116075;27;20028;-75
2022/01/29 12:10:04;;;;;;;2.72;1.70;;;11.40;99.90;;;;;;5115743;27;20019;-75
2022/01/29 12:12:35;;;;;;;3.83;1.92;;;11.40;99.90;;;;;;5115913;28;20058;-76
2022/01/29 12:15:10;;;;;;;2.28;1.60;;;11.40;99.90;;;;;;5115294;28;20024;-75
2022/01/29 12:17:44;;;;;;;1.65;1.40;;;11.40;99.90;;;;;;5115842;28;20027;-76
2022/01/29 12:20:12;;;;;;;2.65;1.90;;;11.40;99.90;;;;;;5115795;28;20095;-74
2022/01/29 12:22:39;;;;;;;2.08;1.38;;;11.50;99.90;;;;;;5115990;28;20019;-75
2022/01/29 12:25:08;;;;;;;3.15;1.95;;;11.50;99.90;;;;;;5115673;28;20511;-77
2022/01/29 12:27:49;;;;;;;3.38;2.00;;;11.50;99.90;;;;;;5115870;28;20385;-76
2022/01/29 12:30:36;;;;;;;2.65;1.73;;;11.50;99.90;;;;;;5115618;27;20028;-75
2022/01/29 12:33:08;;;;;;;3.72;2.55;;;11.50;99.90;;;;;;5115984;28;20051;-75
2022/01/29 12:35:45;;;;;;;3.95;1.92;;;11.50;99.90;;;;;;5116001;28;20028;-75
2022/01/29 12:38:14;;;;;;;3.70;1.80;;;11.40;99.90;;;;;;5115708;28;20012;-75
2022/01/29 12:41:10;;;;;;;4.50;2.30;;;11.40;99.90;;;;;;5115376;28;20031;-74
2022/01/29 12:44:08;;;;;;;4.35;2.45;;;11.50;99.90;;;;;;5097402;28;20031;-74
2022/01/29 12:46:29;;;;;;;4.90;2.70;;;11.50;99.90;;;;;;5114819;28;20484;-75
2022/01/29 12:49:12;;;;;;;3.47;2.20;;;11.50;99.90;;;;;;5115505;28;20019;-76
2022/01/29 12:51:51;;;;;;;3.08;2.30;;;11.50;99.90;;;;;;5115433;28;20102;-74
2022/01/29 12:54:17;;;;;;;3.42;2.30;;;11.50;99.90;;;;;;5115104;28;20366;-75
2022/01/29 12:56:43;;;;;;;2.55;2.05;;;11.50;99.90;;;;;;5115048;28;20030;-76
2022/01/29 12:59:11;;;;;;;3.13;2.20;;;11.50;99.90;;;;;;5114965;28;20095;-74
2022/01/29 13:01:39;;;;;;;2.97;1.95;;;11.50;99.90;;;;;;5115078;28;20473;-76
2022/01/29 13:04:13;;;;;;;3.08;1.98;;;11.50;99.90;;;;;;5113547;28;20096;-76